Decoded Metar for RJFK (KAGOSHIMA in JAPAN) (IATA:KOJ) | Meteo·Mobile Aviation Weather
aviador You're here:

RJFK Decoded Metar

KAGOSHIMA in JAPAN
Report Time2018-10-23 00:00:00
UTC Time2018-10-23 00:35:17
Flight Rules vfr VFR
WindVRB at 01 kt
Visibility9999 m
Phenomena:Vicinity Volcanic Ash
Clouds:Few 020 Hf
Broken 150 Hf
Expected CloudBase > 1,600 ft AGL from Temp-Dew spread
Ceiling15,000 ft
Temp20°C (ISA +7)
Dew Point16°C (78% RH)
QNH1018 hPa
Density Alt1,772 ft
Elevation902 ft
Report Wrong Elevation
Raw Report
RJFK 230000Z VRB01KT 9999 VCVA FEW020 BKN150 20/16 Q1018 RMK
1CU020 6AC150 A3007 ASH FALL VOLCANIC ASH CLOUD S-SW=

Extra information for RJFK:More info

Metar Taf Metar & Taf Last 4 Metars F.Rules Stats Wind Profile Meteogram Temp Stats Airport Information Weather charts Add Link Nearby VenuesMetar ALERT Operation Metar Decoded Social comments